Wednesday, December 19, 2018, 12:32 AM EST
Back to Local

KSLK, Adirondack Regional Airport

Location: Saranac Lake, NY, United States Lat: 44.4
Local Time: 12:32 AM EST ( 5:32 GMT) Lon: -74.2
Time Zone: US/Eastern Elev: 1663 ft

Show me the last for .
Show Decoded

2018-12-18 19:23 METAR KSLK 190023Z AUTO VRB03KT 10SM FEW016 SCT022 M11/M14 A3004 RMK AO2
                 T11111139 $ =
2018-12-18 14:51 METAR KSLK 181951Z AUTO VRB05KT 6SM HZ OVC017 M11/M13 A3000 RMK AO2 SNE35 SLP194
                 P0000 T11061133 $ =
2018-12-18 14:33 METAR KSLK 181933Z AUTO VRB04KT 4SM -SN OVC016 M10/M13 A3000 RMK AO2 P0000
                 T11001128 $ =
2018-12-18 14:17 METAR KSLK 181917Z AUTO 27007KT 210V340 2 1/2SM -SN OVC016 M11/M13 A2999 RMK AO2
                 P0000 T11061133 $ =
2018-12-18 13:51 METAR KSLK 181851Z AUTO VRB05KT 1 3/4SM -SN BR OVC017 M11/M13 A2998 RMK AO2
                 SNE21B39 SLP186 P0000 T11061128 $ =
2018-12-18 13:44 METAR KSLK 181844Z AUTO VRB06KT 1 3/4SM -SN BR OVC017 M11/M13 A2998 RMK AO2
                 SNE21B39 P0000 T11061128 $ =
2018-12-18 13:21 METAR KSLK 181821Z AUTO 27007G15KT 4SM HZ OVC016 M11/M13 A2998 RMK AO2 SNE21
                 P0000 T11061133 $ =
2018-12-18 13:09 METAR KSLK 181809Z AUTO VRB06KT 2 1/2SM -SN OVC016 M10/M13 A2998 RMK AO2 P0000
                 T11001128 $ =
2018-12-18 12:51 METAR KSLK 181751Z AUTO 26007KT 5SM -SN OVC016 M11/M13 A2998 RMK AO2 SNB05
                 SLP185 P0000 60000 T11061133 11106 21122 58003 $ =
2018-12-18 12:29 METAR KSLK 181729Z AUTO VRB04KT 4SM -SN OVC016 M11/M14 A2998 RMK AO2 SNB05 P0000
                 T11111139 $ =
2018-12-18 12:17 METAR KSLK 181717Z AUTO VRB05KT 2 1/2SM -SN OVC016 M11/M13 A2998 RMK AO2 SNB05
                 P0000 T11061133 $ =
2018-12-18 11:51 METAR KSLK 181651Z AUTO VRB06KT 7SM OVC016 M11/M14 A2999 RMK AO2 SLP186
                 T11061139 $ =
2018-12-18 10:51 METAR KSLK 181551Z AUTO 29007KT 4SM HZ OVC016 M11/M14 A2999 RMK AO2 SNE13B37E43
                 SLP188 P0000 T11111144 $ =
2018-12-18 09:51 METAR KSLK 181451Z AUTO 27005KT 3SM -SN OVC016 M12/M14 A2999 RMK AO2 SLP187
                 P0000 60000 T11171144 50002 $ =
2018-12-18 09:49 METAR KSLK 181449Z AUTO 29005KT 3SM -SN OVC016 M12/M14 A2999 RMK AO2 P0000 $ =
2018-12-18 08:51 METAR KSLK 181351Z AUTO VRB03KT 2SM -SN BR OVC016 M12/M14 A2998 RMK AO2 SLP185
                 P0000 T11221144 $ =
2018-12-18 08:49 METAR KSLK 181349Z AUTO VRB05KT 2SM -SN BR OVC016 M12/M14 A2998 RMK AO2 P0000 $
                 =
2018-12-18 08:09 METAR KSLK 181309Z AUTO 29007KT 260V330 1 1/4SM -SN BR OVC017 M12/M14 A2997 RMK
                 AO2 P0000 T11221144 $ =
2018-12-18 07:51 METAR KSLK 181251Z AUTO VRB05KT 2SM -SN BR OVC020 M12/M14 A2996 RMK AO2 SLP176
                 P0000 T11221144 $ =
2018-12-18 07:07 METAR KSLK 181207Z AUTO VRB05KT 1 1/2SM -SN BR BKN016 OVC021 M12/M14 A2994 RMK
                 AO2 P0000 T11171139 $ =
2018-12-18 06:51 METAR KSLK 181151Z AUTO VRB05KT 1 1/4SM -SN BR BKN013 OVC023 M12/M14 A2993 RMK
                 AO2 SLP163 P0001 60001 70007 T11171139 11106 21122 53021 $ =
2018-12-18 05:51 METAR KSLK 181051Z AUTO VRB06G15KT 1 1/4SM -SN BKN014 OVC023 M12/M14 A2990 RMK
                 AO2 SLP152 P0000 T11171144 $ =
2018-12-18 05:30 METAR KSLK 181030Z AUTO 31008G15KT 280V350 1 1/2SM -SN BKN018 OVC025 M12/M14
                 A2989 RMK AO2 P0000 T11171144 $ =
2018-12-18 05:17 METAR KSLK 181017Z AUTO VRB04G15KT 2SM -SN OVC020 M12/M14 A2988 RMK AO2 P0000
                 T11171144 $ =
2018-12-18 04:51 METAR KSLK 180951Z AUTO 30008KT 270V340 1 3/4SM -SN BKN017 OVC024 M12/M14 A2986
                 RMK AO2 SNB0857 SLP139 P0000 T11171144 $ =
2018-12-18 04:48 METAR KSLK 180948Z AUTO VRB05KT 1 1/2SM -SN BKN017 OVC024 M12/M14 A2986 RMK AO2
                 SNB0857 P0000 $ =
2018-12-18 04:11 METAR KSLK 180911Z AUTO 29007KT 2 1/2SM -SN OVC023 M12/M14 A2985 RMK AO2 SNB0857
                 P0000 T11171144 $ =
2018-12-18 03:51 METAR KSLK 180851Z AUTO 30008G17KT 5SM HZ BKN020 OVC028 M12/M14 A2984 RMK AO2
                 SNE35 SLP132 P0000 60000 T11171144 52029 $ =
2018-12-18 03:11 METAR KSLK 180811Z AUTO VRB05G18KT 3SM -SN BKN015 OVC023 M12/M14 A2982 RMK AO2
                 P0000 T11171144 $ =
2018-12-18 02:51 METAR KSLK 180751Z AUTO 30009G19KT 1 1/2SM -SN BR BKN016 OVC022 M12/M14 A2981
                 RMK AO2 SLP122 P0000 T11171139 $ =
2018-12-18 02:10 METAR KSLK 180710Z AUTO 30008KT 1 3/4SM -SN BR BKN017 OVC024 M11/M13 A2980 RMK
                 AO2 P0000 T11111133 $ =
2018-12-18 02:00 METAR KSLK 180700Z AUTO 30009G17KT 280V340 2SM -SN BR BKN016 OVC024 M11/M13
                 A2979 RMK AO2 P0000 T11111133 $ =
2018-12-18 01:51 METAR KSLK 180651Z AUTO 30008G14KT 260V010 1 3/4SM -SN BKN016 OVC024 M11/M13
                 A2978 RMK AO2 SLP111 P0000 T11061133 $ =
2018-12-18 00:51 METAR KSLK 180551Z AUTO 31008G16KT 260V340 1 3/4SM -SN BR OVC016 M11/M13 A2975
                 RMK AO2 SLP100 P0000 60001 T11061128 11044 21106 53008 $ =

Support USWX by starting your Amazon purchase here.